.
WxDataArchive / Data Records for 2014-09-18
2014-09-17 September 2014 2014-09-19

Data Records for Thursday, 18 September 2014

Time	Temp	Chill	HIndex	Humid	Dewpt	 Wind 	HiWind	WindDir	Rain 	Barom
-----	----	-----	------	-----	-----	------	------	-------	-----	-----
00:00	51.1	51.1	51.1	88	47.7	0	0	---	0.00	30.007 
00:05	51.1	51.1	51.1	88	47.7	0	0	---	0.00	30.007 
00:10	51.3	51.3	51.3	88	47.9	0	0	---	0.00	30.007 
00:15	51.4	51.4	51.4	87	47.7	0	0	---	0.00	30.007 
00:20	51.4	51.4	51.4	87	47.7	0	0	---	0.00	30.007 
00:25	51.4	51.4	51.4	87	47.7	0	0	---	0.00	30.007 
00:30	51.3	51.3	51.3	87	47.6	0	0	---	0.00	30.005 
00:35	51.0	51.0	51.0	87	47.3	0	0	---	0.00	30.005 
00:40	50.8	50.8	50.8	87	47.1	0	0	---	0.00	30.005 
00:45	50.7	50.7	50.7	87	47.0	0	0	---	0.00	30.007 
00:50	50.5	50.5	50.5	87	46.8	0	0	---	0.00	30.007 
00:55	50.2	50.2	50.2	87	46.5	0	0	---	0.00	30.007 
01:00	50.1	50.1	50.1	88	46.7	0	0	---	0.00	30.008 
01:05	49.9	49.9	49.9	88	46.5	0	0	---	0.00	30.008 
01:10	49.8	49.8	49.8	88	46.4	0	0	---	0.00	30.008 
01:15	49.6	49.6	49.6	88	46.2	0	0	---	0.00	30.007 
01:20	49.6	49.6	49.6	88	46.2	0	0	---	0.00	30.007 
01:25	49.5	49.5	49.5	88	46.1	0	0	---	0.00	30.007 
01:30	49.4	49.4	49.4	89	46.3	0	0	---	0.00	30.010 
01:35	49.2	49.2	49.2	89	46.1	0	0	---	0.00	30.010 
01:40	49.1	49.1	49.1	89	46.0	0	0	---	0.00	30.010 
01:45	48.9	48.9	48.9	89	45.8	0	0	---	0.00	30.011 
01:50	48.6	48.6	48.6	89	45.5	0	1	292	0.00	30.011 
01:55	48.5	48.5	48.5	90	45.7	0	0	---	0.00	30.011 
02:00	48.3	48.3	48.3	90	45.5	0	0	---	0.00	30.013 
02:05	48.2	48.2	48.2	90	45.4	0	0	---	0.00	30.013 
02:10	48.0	48.0	48.0	90	45.2	0	0	---	0.00	30.013 
02:15	47.9	47.9	47.9	91	45.4	0	0	---	0.00	30.010 
02:20	47.7	47.7	47.7	91	45.2	0	0	---	0.00	30.010 
02:25	47.6	47.6	47.6	91	45.1	0	0	---	0.00	30.010 
02:30	47.4	47.4	47.4	91	44.9	0	0	---	0.00	30.012 
02:35	47.4	47.4	47.4	91	44.9	0	0	---	0.00	30.012 
02:40	47.4	47.4	47.4	92	45.2	0	0	---	0.00	30.012 
02:45	47.4	47.4	47.4	92	45.2	0	0	---	0.00	30.014 
02:50	47.3	47.3	47.3	92	45.1	0	0	---	0.00	30.014 
02:55	47.3	47.3	47.3	92	45.1	0	0	---	0.00	30.014 
03:00	47.3	47.3	47.3	92	45.1	0	0	---	0.00	30.015 
03:05	47.1	47.1	47.1	92	44.9	0	0	---	0.00	30.015 
03:10	47.1	47.1	47.1	92	44.9	0	0	---	0.00	30.015 
03:15	47.0	47.0	47.0	92	44.8	0	0	---	0.00	30.015 
03:20	46.8	46.8	46.8	92	44.6	0	0	---	0.00	30.015 
03:25	46.7	46.7	46.7	92	44.5	0	0	---	0.00	30.015 
03:30	46.7	46.7	46.7	92	44.5	0	0	---	0.00	30.015 
03:35	46.5	46.5	46.5	92	44.3	0	0	---	0.00	30.015 
03:40	46.4	46.4	46.4	92	44.2	0	0	---	0.00	30.015 
03:45	46.2	46.2	46.2	92	44.0	0	0	---	0.00	30.016 
03:50	46.2	46.2	46.2	92	44.0	0	0	---	0.00	30.016 
03:55	46.1	46.1	46.1	92	43.9	0	0	---	0.00	30.016 
04:00	46.0	46.0	46.0	93	44.1	0	0	---	0.00	30.019 
04:05	46.0	46.0	46.0	93	44.1	0	0	---	0.00	30.019 
04:10	45.8	45.8	45.8	93	43.9	0	0	---	0.00	30.019 
04:15	45.8	45.8	45.8	93	43.9	0	0	---	0.00	30.024 
04:20	45.7	45.7	45.7	93	43.8	0	0	---	0.00	30.024 
04:25	45.5	45.5	45.5	93	43.6	0	0	---	0.00	30.024 
04:30	45.4	45.4	45.4	93	43.5	0	0	---	0.00	30.022 
04:35	45.2	45.2	45.2	93	43.3	0	0	---	0.00	30.022 
04:40	45.1	45.1	45.1	93	43.2	0	0	---	0.00	30.022 
04:45	45.1	45.1	45.1	93	43.2	0	0	---	0.00	30.025 
04:50	45.1	45.1	45.1	93	43.2	0	0	---	0.00	30.025 
04:55	45.1	45.1	45.1	93	43.2	0	0	---	0.00	30.025 
05:00	44.9	44.9	44.9	93	43.0	0	0	---	0.00	30.025 
05:05	44.9	44.9	44.9	93	43.0	0	0	---	0.00	30.025 
05:10	44.8	44.8	44.8	93	42.9	0	0	---	0.00	30.025 
05:15	44.6	44.6	44.6	93	42.7	0	0	---	0.00	30.028 
05:20	44.6	44.6	44.6	93	42.7	0	0	---	0.00	30.028 
05:25	44.6	44.6	44.6	93	42.7	0	0	---	0.00	30.028 
05:30	44.5	44.5	44.5	93	42.6	0	0	---	0.00	30.031 
05:35	44.5	44.5	44.5	93	42.6	0	0	---	0.00	30.031 
05:40	44.5	44.5	44.5	94	42.9	0	0	---	0.00	30.031 
05:45	44.3	44.3	44.3	94	42.7	0	0	---	0.00	30.035 
05:50	44.3	44.3	44.3	94	42.7	0	0	---	0.00	30.035 
05:55	44.2	44.2	44.2	94	42.6	0	0	---	0.00	30.035 
06:00	44.2	44.2	44.2	94	42.6	0	0	---	0.00	30.038 
06:05	44.1	44.1	44.1	94	42.5	0	0	---	0.00	30.038 
06:10	44.1	44.1	44.1	94	42.5	0	0	---	0.00	30.038 
06:15	43.9	43.9	43.9	94	42.3	0	0	---	0.00	30.043 
06:20	43.8	43.8	43.8	94	42.2	0	0	---	0.00	30.043 
06:25	43.8	43.8	43.8	94	42.2	0	0	---	0.00	30.043 
06:30	43.6	43.6	43.6	94	42.0	0	0	---	0.00	30.046 
06:35	43.6	43.6	43.6	94	42.0	0	0	---	0.00	30.046 
06:40	43.5	43.5	43.5	94	41.9	0	0	---	0.00	30.046 
06:45	43.5	43.5	43.5	94	41.9	0	0	---	0.00	30.047 
06:50	43.5	43.5	43.5	94	41.9	0	0	---	0.00	30.047 
06:55	43.3	43.3	43.3	94	41.7	0	0	---	0.00	30.047 
07:00	43.3	43.3	43.3	94	41.7	0	0	---	0.00	30.049 
07:05	43.3	43.3	43.3	94	41.7	0	0	---	0.00	30.049 
07:10	43.3	43.3	43.3	94	41.7	0	0	---	0.00	30.049 
07:15	43.3	43.3	43.3	94	41.7	0	0	---	0.00	30.057 
07:20	43.5	43.5	43.5	94	41.9	0	0	---	0.00	30.057 
07:25	43.6	43.6	43.6	94	42.0	0	0	---	0.00	30.057 
07:30	43.9	43.9	43.9	95	42.6	0	0	---	0.00	30.059 
07:35	44.2	44.2	44.2	95	42.9	0	0	---	0.00	30.059 
07:40	44.3	44.3	44.3	95	43.0	0	0	---	0.00	30.059 
07:45	44.5	44.5	44.5	95	43.2	0	0	---	0.00	30.063 
07:50	44.8	44.8	44.8	95	43.5	0	0	---	0.00	30.063 
07:55	44.9	44.9	44.9	95	43.6	0	0	---	0.00	30.063 
08:00	45.1	45.1	45.1	95	43.8	0	0	---	0.00	30.066 
08:05	45.4	45.4	45.4	95	44.1	0	0	---	0.00	30.066 
08:10	45.8	45.8	45.8	95	44.4	0	0	---	0.00	30.066 
08:15	46.2	46.2	46.2	96	45.1	0	0	---	0.00	30.068 
08:20	46.8	46.8	46.8	95	45.4	0	0	---	0.00	30.068 
08:25	47.1	47.1	47.1	96	46.0	0	0	---	0.00	30.068 
08:30	47.4	47.4	47.4	96	46.3	0	0	---	0.00	30.076 
08:35	47.9	47.9	47.9	96	46.8	0	0	---	0.00	30.076 
08:40	48.3	48.3	48.3	96	47.2	0	0	---	0.00	30.076 
08:45	48.8	48.8	48.8	95	47.4	0	0	---	0.00	30.081 
08:50	49.1	49.1	49.1	95	47.7	0	1	292	0.00	30.081 
08:55	49.4	49.4	49.4	95	48.0	0	1	292	0.00	30.081 
09:00	49.8	49.8	49.8	95	48.4	0	0	---	0.00	30.088 
09:05	50.2	50.2	50.2	94	48.5	0	1	292	0.00	30.088 
09:10	50.8	50.8	50.8	94	49.1	0	1	292	0.00	30.088 
09:15	51.3	51.3	51.3	92	49.1	0	2	292	0.00	30.092 
09:20	51.9	51.9	51.9	91	49.4	0	2	292	0.00	30.092 
09:25	52.3	52.3	52.3	88	48.9	0	2	292	0.00	30.092 
09:30	52.9	52.9	52.9	87	49.1	0	1	292	0.00	30.094 
09:35	53.6	53.6	53.6	85	49.2	0	3	292	0.00	30.094 
09:40	54.1	54.1	54.1	84	49.4	0	3	292	0.00	30.094 
09:45	54.5	54.5	54.5	82	49.1	1	3	45	0.00	30.096 
09:50	55.3	55.3	55.3	79	48.9	1	6	90	0.00	30.096 
09:55	56.0	56.0	56.0	77	48.9	1	4	158	0.00	30.096 
10:00	56.6	56.6	56.6	76	49.1	1	3	135	0.00	30.103 
10:05	57.5	57.5	57.5	73	48.9	0	2	135	0.00	30.103 
10:10	58.3	58.3	58.3	73	49.7	0	2	135	0.00	30.103 
10:15	58.7	58.7	58.7	70	48.9	1	5	112	0.00	30.107 
10:20	59.3	59.3	59.3	71	49.9	0	2	112	0.00	30.107 
10:25	60.1	60.1	60.1	69	49.9	0	2	112	0.00	30.107 
10:30	60.7	60.7	60.7	67	49.7	1	3	112	0.00	30.113 
10:35	61.2	61.2	61.2	66	49.7	0	3	112	0.00	30.113 
10:40	61.3	61.3	61.3	65	49.4	1	4	112	0.00	30.113 
10:45	62.0	62.0	62.0	66	50.5	1	4	112	0.00	30.117 
10:50	62.6	62.6	62.6	64	50.2	0	2	112	0.00	30.117 
10:55	63.2	63.2	63.2	63	50.4	1	4	112	0.00	30.117 
11:00	63.7	63.7	63.7	60	49.5	1	4	112	0.00	30.119 
11:05	64.3	64.3	64.3	62	51.0	0	2	112	0.00	30.119 
11:10	65.2	65.2	65.2	59	50.5	0	1	112	0.00	30.119 
11:15	65.6	65.6	65.6	58	50.4	0	2	112	0.00	30.119 
11:20	66.0	66.0	66.0	55	49.4	1	3	112	0.00	30.119 
11:25	66.0	66.0	66.0	57	50.3	1	3	112	0.00	30.119 
11:30	66.1	66.1	66.1	57	50.4	1	3	112	0.00	30.118 
11:35	66.1	66.1	66.1	56	49.9	1	3	112	0.00	30.118 
11:40	65.8	65.8	65.8	54	48.7	2	5	112	0.00	30.118 
11:45	65.6	65.6	65.6	55	49.0	1	3	112	0.00	30.117 
11:50	66.3	66.3	66.3	61	52.4	0	3	112	0.00	30.117 
11:55	66.6	66.6	66.6	54	49.4	1	3	112	0.00	30.117 
12:00	67.1	67.1	67.1	54	49.9	0	1	112	0.00	30.115 
12:05	67.4	67.4	67.4	51	48.6	1	4	112	0.00	30.115 
12:10	67.4	67.4	67.4	50	48.1	1	3	112	0.00	30.115 
12:15	67.6	67.6	67.6	50	48.3	0	2	112	0.00	30.115 
12:20	68.3	68.3	68.3	49	48.4	0	2	112	0.00	30.115 
12:25	68.6	68.6	68.6	48	48.1	1	4	112	0.00	30.115 
12:30	68.6	68.6	68.6	51	49.7	1	3	112	0.00	30.112 
12:35	68.4	68.4	68.4	47	47.4	1	4	112	0.00	30.112 
12:40	68.4	68.4	68.4	48	47.9	0	3	112	0.00	30.112 
12:45	68.3	68.3	68.3	51	49.5	1	3	112	0.00	30.109 
12:50	68.3	68.3	68.3	48	47.8	1	3	112	0.00	30.109 
12:55	68.1	68.1	68.1	47	47.1	2	5	68	0.00	30.109 
13:00	67.9	67.9	67.9	50	48.6	2	4	68	0.00	30.102 
13:05	68.1	68.1	68.1	48	47.7	1	3	90	0.00	30.102 
13:10	68.1	68.1	68.1	50	48.7	0	3	90	0.00	30.102 
13:15	68.4	68.4	68.4	51	49.6	1	3	90	0.00	30.102 
13:20	68.8	68.8	68.8	48	48.3	1	4	90	0.00	30.102 
13:25	68.8	68.8	68.8	49	48.8	1	4	90	0.00	30.102 
13:30	68.9	68.9	68.9	50	49.5	1	3	90	0.00	30.102 
13:35	69.3	69.3	69.3	50	49.8	1	4	90	0.00	30.102 
13:40	69.3	69.3	69.3	48	48.8	1	3	90	0.00	30.102 
13:45	69.1	69.1	69.1	52	50.7	1	3	68	0.00	30.101 
13:50	68.9	68.9	68.9	48	48.4	1	3	68	0.00	30.101 
13:55	69.1	69.1	69.1	48	48.6	1	5	68	0.00	30.101 
14:00	69.1	69.1	69.1	49	49.1	1	4	90	0.00	30.101 
14:05	69.3	69.3	69.3	46	47.6	1	4	90	0.00	30.101 
14:10	69.4	69.4	69.4	51	50.5	0	1	90	0.00	30.101 
14:15	69.3	69.3	69.3	47	48.2	1	5	315	0.00	30.102 
14:20	69.6	69.6	69.6	47	48.5	1	4	0	0.00	30.102 
14:25	69.6	69.6	69.6	45	47.3	1	5	90	0.00	30.102 
14:30	69.8	69.8	69.8	47	48.6	1	3	90	0.00	30.098 
14:35	70.1	70.1	70.1	49	50.0	0	2	90	0.00	30.098 
14:40	70.3	70.3	70.3	44	47.3	1	2	90	0.00	30.098 
14:45	70.3	70.3	70.3	45	47.9	1	5	90	0.00	30.095 
14:50	70.3	70.3	70.3	46	48.5	1	3	90	0.00	30.095 
14:55	70.3	70.3	70.3	48	49.7	0	2	45	0.00	30.095 
15:00	70.4	70.4	70.4	47	49.2	1	5	112	0.00	30.088 
15:05	70.4	70.4	70.4	43	46.8	1	3	90	0.00	30.088 
15:10	70.6	70.6	70.6	46	48.8	0	3	90	0.00	30.088 
15:15	70.6	70.6	70.6	45	48.2	1	2	90	0.00	30.087 
15:20	70.6	70.6	70.6	43	47.0	2	5	90	0.00	30.087 
15:25	70.6	70.6	70.6	48	49.9	1	3	90	0.00	30.087 
15:30	70.4	70.4	70.4	44	47.4	0	2	90	0.00	30.083 
15:35	70.6	70.6	70.6	46	48.8	1	3	90	0.00	30.083 
15:40	70.8	70.8	70.8	45	48.4	1	5	90	0.00	30.083 
15:45	70.8	70.8	70.8	44	47.8	0	1	90	0.00	30.081 
15:50	70.8	70.8	70.8	44	47.8	1	4	90	0.00	30.081 
15:55	70.9	70.9	70.9	46	49.1	0	3	90	0.00	30.081 
16:00	70.9	70.9	70.9	43	47.3	1	4	90	0.00	30.076 
16:05	70.9	70.9	70.9	46	49.1	1	3	68	0.00	30.076 
16:10	70.8	70.8	70.8	46	49.0	1	3	90	0.00	30.076 
16:15	70.8	70.8	70.8	46	49.0	1	4	90	0.00	30.074 
16:20	70.6	70.6	70.6	45	48.2	0	2	90	0.00	30.074 
16:25	70.6	70.6	70.6	45	48.2	0	3	90	0.00	30.074 
16:30	70.8	70.8	70.8	45	48.4	1	3	90	0.00	30.076 
16:35	70.6	70.6	70.6	42	46.4	1	5	90	0.00	30.076 
16:40	70.4	70.4	70.4	46	48.6	1	4	90	0.00	30.076 
16:45	70.4	70.4	70.4	45	48.0	1	3	90	0.00	30.074 
16:50	70.4	70.4	70.4	44	47.4	1	3	90	0.00	30.074 
16:55	70.4	70.4	70.4	44	47.4	0	2	90	0.00	30.074 
17:00	70.4	70.4	70.4	45	48.0	0	2	90	0.00	30.076 
17:05	70.4	70.4	70.4	46	48.6	1	4	90	0.00	30.076 
17:10	70.3	70.3	70.3	44	47.3	0	3	90	0.00	30.076 
17:15	70.3	70.3	70.3	44	47.3	1	4	90	0.00	30.076 
17:20	70.3	70.3	70.3	46	48.5	1	6	90	0.00	30.076 
17:25	70.3	70.3	70.3	44	47.3	1	4	135	0.00	30.076 
17:30	70.1	70.1	70.1	43	46.6	0	3	135	0.00	30.073 
17:35	70.1	70.1	70.1	45	47.8	0	2	135	0.00	30.073 
17:40	70.1	70.1	70.1	46	48.3	1	3	135	0.00	30.073 
17:45	70.1	70.1	70.1	44	47.2	1	3	135	0.00	30.073 
17:50	70.1	70.1	70.1	45	47.8	0	2	135	0.00	30.073 
17:55	70.3	70.3	70.3	47	49.1	0	4	135	0.00	30.073 
18:00	70.3	70.3	70.3	45	47.9	0	2	135	0.00	30.072 
18:05	70.1	70.1	70.1	43	46.6	1	4	90	0.00	30.072 
18:10	69.9	69.9	69.9	44	47.0	0	2	90	0.00	30.072 
18:15	69.9	69.9	69.9	45	47.6	1	3	90	0.00	30.074 
18:20	69.8	69.8	69.8	43	46.3	0	3	90	0.00	30.074 
18:25	69.8	69.8	69.8	45	47.5	0	1	90	0.00	30.074 
18:30	69.6	69.6	69.6	43	46.1	1	6	112	0.00	30.074 
18:35	69.6	69.6	69.6	45	47.3	0	2	112	0.00	30.074 
18:40	69.3	69.3	69.3	45	47.0	0	1	112	0.00	30.074 
18:45	69.1	69.1	69.1	44	46.3	0	3	112	0.00	30.075 
18:50	68.9	68.9	68.9	44	46.1	0	2	112	0.00	30.075 
18:55	68.8	68.8	68.8	45	46.6	0	2	112	0.00	30.075 
19:00	68.6	68.6	68.6	46	47.0	0	1	112	0.00	30.078 
19:05	68.3	68.3	68.3	47	47.3	0	1	112	0.00	30.078 
19:10	68.1	68.1	68.1	50	48.7	0	1	112	0.00	30.078 
19:15	67.9	67.9	67.9	50	48.6	0	0	---	0.00	30.078 
19:20	67.4	67.4	67.4	51	48.6	0	0	---	0.00	30.078 
19:25	67.1	67.1	67.1	52	48.9	0	0	---	0.00	30.078 
19:30	66.6	66.6	66.6	53	48.9	0	0	---	0.00	30.079 
19:35	66.1	66.1	66.1	52	48.0	0	1	112	0.00	30.079 
19:40	66.0	66.0	66.0	52	47.9	0	3	112	0.00	30.079 
19:45	65.8	65.8	65.8	53	48.2	0	1	112	0.00	30.085 
19:50	65.6	65.6	65.6	54	48.5	0	1	112	0.00	30.085 
19:55	65.5	65.5	65.5	54	48.4	0	0	---	0.00	30.085 
20:00	65.0	65.0	65.0	55	48.4	0	0	---	0.00	30.090 
20:05	64.5	64.5	64.5	56	48.4	0	0	---	0.00	30.090 
20:10	64.0	64.0	64.0	58	48.9	0	0	---	0.00	30.090 
20:15	63.7	63.7	63.7	58	48.6	0	1	112	0.00	30.088 
20:20	63.5	63.5	63.5	59	48.9	0	1	112	0.00	30.088 
20:25	63.7	63.7	63.7	59	49.1	0	2	112	0.00	30.088 
20:30	63.7	63.7	63.7	59	49.1	0	1	112	0.00	30.097 
20:35	63.9	63.9	63.9	59	49.3	0	2	112	0.00	30.097 
20:40	63.9	63.9	63.9	59	49.3	0	3	112	0.00	30.097 
20:45	63.9	63.9	63.9	60	49.7	0	1	112	0.00	30.103 
20:50	63.7	63.7	63.7	60	49.5	0	0	---	0.00	30.103 
20:55	63.5	63.5	63.5	61	49.8	0	2	112	0.00	30.103 
21:00	63.2	63.2	63.2	62	50.0	0	1	112	0.00	30.112 
21:05	62.9	62.9	62.9	62	49.7	0	1	112	0.00	30.112 
21:10	62.6	62.6	62.6	63	49.8	0	0	---	0.00	30.112 
21:15	62.3	62.3	62.3	64	50.0	0	0	---	0.00	30.116 
21:20	62.0	62.0	62.0	65	50.1	0	1	112	0.00	30.116 
21:25	61.6	61.6	61.6	66	50.1	0	2	112	0.00	30.116 
21:30	61.3	61.3	61.3	67	50.2	0	1	112	0.00	30.119 
21:35	61.2	61.2	61.2	68	50.5	0	2	112	0.00	30.119 
21:40	61.0	61.0	61.0	69	50.8	0	3	112	0.00	30.119 
21:45	60.7	60.7	60.7	69	50.5	0	2	112	0.00	30.125 
21:50	60.5	60.5	60.5	70	50.7	0	1	112	0.00	30.125 
21:55	60.2	60.2	60.2	71	50.8	0	1	112	0.00	30.125 
22:00	59.9	59.9	59.9	72	50.8	0	1	112	0.00	30.132 
22:05	59.6	59.6	59.6	73	50.9	0	0	---	0.00	30.132 
22:10	59.3	59.3	59.3	74	51.0	0	1	112	0.00	30.132 
22:15	59.0	59.0	59.0	75	51.1	0	1	112	0.00	30.129 
22:20	58.7	58.7	58.7	75	50.8	0	0	---	0.00	30.129 
22:25	58.6	58.6	58.6	76	51.1	0	1	112	0.00	30.129 
22:30	58.4	58.4	58.4	76	50.9	0	1	112	0.00	30.133 
22:35	58.3	58.3	58.3	77	51.1	0	2	112	0.00	30.133 
22:40	58.1	58.1	58.1	77	50.9	0	1	112	0.00	30.133 
22:45	58.0	58.0	58.0	78	51.2	0	1	112	0.00	30.138 
22:50	57.8	57.8	57.8	78	51.0	0	1	112	0.00	30.138 
22:55	57.6	57.6	57.6	79	51.1	0	2	112	0.00	30.138 
23:00	57.5	57.5	57.5	79	51.0	0	1	112	0.00	30.142 
23:05	57.3	57.3	57.3	80	51.2	0	1	112	0.00	30.142 
23:10	57.2	57.2	57.2	80	51.1	0	1	112	0.00	30.142 
23:15	57.0	57.0	57.0	81	51.2	0	1	112	0.00	30.143 
23:20	56.9	56.9	56.9	81	51.1	0	1	112	0.00	30.143 
23:25	56.7	56.7	56.7	81	50.9	0	1	112	0.00	30.143 
23:30	56.6	56.6	56.6	81	50.8	0	0	---	0.00	30.147 
23:35	56.5	56.5	56.5	82	51.1	0	1	112	0.00	30.147 
23:40	56.3	56.3	56.3	82	50.9	0	0	---	0.00	30.147 
23:45	56.2	56.2	56.2	83	51.1	0	1	112	0.00	30.151 
23:50	56.0	56.0	56.0	83	50.9	0	1	112	0.00	30.151 
23:55	56.0	56.0	56.0	83	50.9	0	1	112	0.00	30.151 

CoCoRaHS
IN-AL-39
A2 Web Hosting
Creative Commons License
GoDaddy
search engine by freefind advanced

loaded 2018-11-22 06:08:06 • last modified 2010-11-18 10:43:29
Privacy PolicyDisclaimer
• wx.awcolley.com is powered by PmWiki v.2002016 •
• all content (unless otherwise noted) © 2018 A W Colley